createdAt,value
2023-01-20T00:00:30.771Z,11.73
2023-01-20T00:02:58.118Z,12.80
2023-01-20T00:05:25.454Z,10.80
2023-01-20T00:07:52.789Z,12.27
2023-01-20T00:10:20.072Z,12.77
2023-01-20T00:12:47.287Z,11.47
2023-01-20T00:15:15.192Z,11.60
2023-01-20T00:17:43.344Z,10.67
2023-01-20T00:20:11.899Z,13.53
2023-01-20T00:22:41.618Z,12.50
2023-01-20T00:25:10.233Z,13.50
2023-01-20T00:27:37.487Z,13.07
2023-01-20T00:30:05.765Z,12.93
2023-01-20T00:32:38.403Z,13.27
2023-01-20T00:35:07.796Z,13.87
2023-01-20T00:37:35.018Z,13.10
2023-01-20T00:40:02.211Z,12.53
2023-01-20T00:42:29.617Z,13.63
2023-01-20T00:44:56.851Z,12.90
2023-01-20T00:47:24.584Z,15.07
2023-01-20T00:49:51.928Z,14.10
2023-01-20T00:52:19.837Z,13.63
2023-01-20T00:54:47.071Z,13.90
2023-01-20T00:57:14.283Z,15.63
2023-01-20T00:59:41.507Z,14.83
2023-01-20T01:02:08.858Z,15.63
2023-01-20T01:04:36.171Z,14.70
2023-01-20T01:07:03.519Z,14.57
2023-01-20T01:09:31.701Z,14.20
2023-01-20T01:11:58.960Z,15.43
2023-01-20T01:14:26.278Z,14.67
2023-01-20T01:16:53.625Z,14.30
2023-01-20T01:19:21.137Z,15.13
2023-01-20T01:21:48.383Z,13.77
2023-01-20T01:24:15.657Z,15.60
2023-01-20T01:26:43.626Z,13.80
2023-01-20T01:29:10.898Z,14.93
2023-01-20T01:31:38.436Z,19.10
2023-01-20T01:34:05.752Z,15.30
2023-01-20T01:36:33.033Z,14.47
2023-01-20T01:39:00.317Z,14.17
2023-01-20T01:41:27.607Z,14.50
2023-01-20T01:44:04.927Z,13.30
2023-01-20T01:46:32.565Z,12.83
2023-01-20T01:49:03.530Z,11.77
2023-01-20T01:51:34.817Z,12.47
2023-01-20T01:54:07.842Z,13.63
2023-01-20T01:56:35.630Z,13.70
2023-01-20T01:59:04.509Z,12.03
2023-01-20T02:01:33.529Z,13.07
2023-01-20T02:04:04.331Z,13.10
2023-01-20T02:06:35.064Z,13.57
2023-01-20T02:09:04.027Z,13.97
2023-01-20T02:11:35.219Z,13.20
2023-01-20T02:14:03.286Z,14.70
2023-01-20T02:16:41.602Z,15.07
2023-01-20T02:19:30.531Z,14.93
2023-01-20T02:22:11.275Z,12.30
2023-01-20T02:25:13.077Z,13.93
2023-01-20T02:28:13.581Z,14.77
2023-01-20T02:31:08.564Z,13.23
2023-01-20T02:33:42.472Z,13.53
2023-01-20T02:36:11.331Z,13.83
2023-01-20T02:38:45.212Z,13.20
2023-01-20T02:41:17.613Z,13.90
2023-01-20T02:43:50.122Z,13.90
2023-01-20T02:46:25.138Z,14.50
2023-01-20T02:48:56.759Z,14.93
2023-01-20T02:51:29.293Z,14.03
2023-01-20T02:54:00.456Z,13.93
2023-01-20T02:56:29.769Z,14.07
2023-01-20T02:59:00.685Z,14.57
2023-01-20T03:01:32.920Z,13.87
2023-01-20T03:04:03.549Z,15.00
2023-01-20T03:06:36.179Z,14.40
2023-01-20T03:09:07.881Z,13.57
2023-01-20T03:11:38.236Z,13.10
2023-01-20T03:14:08.729Z,13.83
2023-01-20T03:16:36.394Z,14.37
2023-01-20T03:19:04.400Z,15.97
2023-01-20T03:21:32.614Z,15.30
2023-01-20T03:24:01.925Z,13.10
2023-01-20T03:26:30.144Z,14.47
2023-01-20T03:28:58.197Z,15.07
2023-01-20T03:31:28.515Z,14.03
2023-01-20T03:33:57.605Z,13.40
2023-01-20T03:36:28.599Z,14.50
2023-01-20T03:38:57.952Z,14.17
2023-01-20T03:41:35.935Z,13.33
2023-01-20T03:44:12.168Z,14.47
2023-01-20T03:46:45.829Z,14.30
2023-01-20T03:49:19.180Z,14.80
2023-01-20T03:51:56.625Z,13.77
2023-01-20T03:54:28.015Z,15.23
2023-01-20T03:57:03.334Z,14.23
2023-01-20T03:59:33.123Z,13.93
2023-01-20T04:02:05.632Z,15.03
2023-01-20T04:04:36.234Z,15.07
2023-01-20T04:07:06.060Z,15.20
2023-01-20T04:09:38.671Z,14.90
2023-01-20T04:12:06.425Z,15.03
2023-01-20T04:14:35.509Z,11.53
2023-01-20T04:17:04.477Z,12.30
2023-01-20T04:19:31.936Z,10.07
2023-01-20T04:22:04.782Z,12.10
2023-01-20T04:24:37.619Z,10.97
2023-01-20T04:27:04.881Z,11.50
2023-01-20T04:29:32.131Z,13.33
2023-01-20T04:32:00.418Z,14.40
2023-01-20T04:34:27.787Z,13.27
2023-01-20T04:36:55.183Z,12.60
2023-01-20T04:39:22.503Z,12.10
2023-01-20T04:41:50.539Z,13.93
2023-01-20T04:44:17.812Z,13.70
2023-01-20T04:46:46.632Z,13.70
2023-01-20T04:49:14.087Z,12.63
2023-01-20T04:51:41.571Z,13.43
2023-01-20T04:54:08.815Z,15.10
2023-01-20T04:56:36.089Z,13.50
2023-01-20T04:59:04.164Z,13.40
2023-01-20T05:01:31.542Z,14.60
2023-01-20T05:03:58.877Z,13.40
2023-01-20T05:06:26.184Z,16.73
2023-01-20T05:08:53.379Z,12.60
2023-01-20T05:11:20.665Z,16.23
2023-01-20T05:13:47.906Z,15.63
2023-01-20T05:16:21.086Z,14.37
2023-01-20T05:18:48.277Z,13.90
2023-01-20T05:21:15.496Z,18.63
2023-01-20T05:23:42.849Z,14.87
2023-01-20T05:26:10.667Z,17.50
2023-01-20T05:28:37.933Z,15.17
2023-01-20T05:31:05.292Z,16.07
2023-01-20T05:33:33.358Z,16.27
2023-01-20T05:36:04.039Z,15.90
2023-01-20T05:38:31.260Z,15.67
2023-01-20T05:41:01.632Z,15.40
2023-01-20T05:43:29.244Z,14.33
2023-01-20T05:45:56.601Z,15.40
2023-01-20T05:48:24.180Z,14.10
2023-01-20T05:50:52.493Z,14.90
2023-01-20T05:53:20.186Z,13.37
2023-01-20T05:55:47.790Z,16.07
2023-01-20T05:58:15.135Z,16.23
2023-01-20T06:00:42.407Z,15.27
2023-01-20T06:03:09.673Z,17.53
2023-01-20T06:05:37.195Z,15.60
2023-01-20T06:08:05.733Z,16.83
2023-01-20T06:10:32.975Z,15.20
2023-01-20T06:13:00.200Z,18.20
2023-01-20T06:15:28.819Z,18.20
2023-01-20T06:17:56.171Z,16.23
2023-01-20T06:20:23.481Z,17.13
2023-01-20T06:22:55.179Z,16.47
2023-01-20T06:25:23.122Z,15.50
2023-01-20T06:27:50.442Z,15.87
2023-01-20T06:30:18.212Z,18.30
2023-01-20T06:32:47.373Z,14.97
2023-01-20T06:35:15.051Z,15.70
2023-01-20T06:37:42.476Z,16.23
2023-01-20T06:40:11.037Z,17.50
2023-01-20T06:42:38.907Z,16.93
2023-01-20T06:45:07.158Z,16.20
2023-01-20T06:47:34.387Z,16.87
2023-01-20T06:50:01.770Z,17.20
2023-01-20T06:52:29.057Z,17.00
2023-01-20T06:54:56.313Z,16.83
2023-01-20T06:57:23.618Z,17.90
2023-01-20T06:59:51.586Z,18.67
2023-01-20T07:02:18.900Z,19.33
2023-01-20T07:04:46.136Z,18.87
2023-01-20T07:07:13.589Z,16.60
2023-01-20T07:09:40.819Z,17.53
2023-01-20T07:12:08.099Z,16.40
2023-01-20T07:14:35.337Z,18.37
2023-01-20T07:17:03.228Z,19.40
2023-01-20T07:19:30.555Z,19.67
2023-01-20T07:21:57.958Z,15.47
2023-01-20T07:24:25.226Z,19.90
2023-01-20T07:26:53.317Z,16.70
2023-01-20T07:29:20.695Z,18.20
2023-01-20T07:31:47.980Z,17.87
2023-01-20T07:34:15.973Z,18.10
2023-01-20T07:36:43.250Z,16.90
2023-01-20T07:39:12.287Z,18.27
2023-01-20T07:41:39.742Z,31.20
2023-01-20T07:44:06.963Z,19.87
2023-01-20T07:46:34.223Z,19.53
2023-01-20T07:49:01.477Z,19.87
2023-01-20T07:51:29.391Z,23.00
2023-01-20T07:53:56.656Z,20.53
2023-01-20T07:56:25.666Z,25.20
2023-01-20T07:58:54.191Z,18.30
2023-01-20T08:01:24.015Z,18.27
2023-01-20T08:03:51.771Z,19.20
2023-01-20T08:06:21.360Z,19.00
2023-01-20T08:08:49.521Z,20.23
2023-01-20T08:11:18.638Z,18.43
2023-01-20T08:13:46.591Z,18.43
2023-01-20T08:16:15.930Z,22.50
2023-01-20T08:18:43.809Z,16.87
2023-01-20T08:21:18.983Z,18.00
2023-01-20T08:23:46.200Z,19.10
2023-01-20T08:26:14.484Z,17.80
2023-01-20T08:28:41.823Z,16.87
2023-01-20T08:31:10.836Z,16.97
2023-01-20T08:33:38.400Z,18.80
2023-01-20T08:36:07.781Z,16.90
2023-01-20T08:38:35.432Z,18.30
2023-01-20T08:41:05.866Z,18.70
2023-01-20T08:43:33.882Z,18.07
2023-01-20T08:46:02.102Z,17.07
2023-01-20T08:48:29.582Z,17.60
2023-01-20T08:50:57.036Z,15.93
2023-01-20T08:53:24.323Z,17.23
2023-01-20T08:55:58.624Z,18.90
2023-01-20T08:58:26.859Z,20.63
2023-01-20T09:00:55.499Z,16.50
2023-01-20T09:03:23.457Z,18.00
2023-01-20T09:05:51.057Z,15.97
2023-01-20T09:08:18.914Z,17.00
2023-01-20T09:10:46.763Z,15.63
2023-01-20T09:13:14.006Z,18.70
2023-01-20T09:15:41.264Z,16.90
2023-01-20T09:18:09.243Z,17.23
2023-01-20T09:20:36.796Z,17.07
2023-01-20T09:23:04.064Z,15.30
2023-01-20T09:25:31.383Z,17.67
2023-01-20T09:28:00.993Z,15.73
2023-01-20T09:30:28.386Z,17.20
2023-01-20T09:32:57.587Z,14.20
2023-01-20T09:35:25.964Z,14.57
2023-01-20T09:38:11.783Z,17.10
2023-01-20T09:41:06.619Z,17.13
2023-01-20T09:43:54.096Z,15.67
2023-01-20T09:46:30.603Z,16.37
2023-01-20T09:49:30.154Z,17.87
2023-01-20T09:52:24.563Z,18.07
2023-01-20T09:54:58.087Z,17.30
2023-01-20T09:57:27.743Z,17.90
2023-01-20T10:00:03.379Z,18.33
2023-01-20T10:02:34.714Z,16.60
2023-01-20T10:05:10.733Z,21.30
2023-01-20T10:07:44.623Z,21.03
2023-01-20T10:10:19.045Z,19.80
2023-01-20T10:12:49.576Z,17.30
2023-01-20T10:15:23.539Z,17.77
2023-01-20T10:17:54.787Z,20.20
2023-01-20T10:20:29.114Z,22.97
2023-01-20T10:23:03.418Z,21.23
2023-01-20T10:25:37.899Z,20.07
2023-01-20T10:28:10.715Z,22.90
2023-01-20T10:30:38.044Z,19.97
2023-01-20T10:33:10.317Z,21.30
2023-01-20T10:35:41.678Z,16.93
2023-01-20T10:38:19.250Z,18.10
2023-01-20T10:40:52.151Z,18.97
2023-01-20T10:43:19.961Z,19.33
2023-01-20T10:46:01.055Z,17.93
2023-01-20T10:48:48.116Z,16.90
2023-01-20T10:51:20.516Z,16.40
2023-01-20T10:54:02.071Z,17.43
2023-01-20T10:56:36.347Z,17.40
2023-01-20T10:59:09.613Z,16.80
2023-01-20T11:01:37.060Z,17.93
2023-01-20T11:04:04.905Z,18.90
2023-01-20T11:06:32.496Z,17.40
2023-01-20T11:09:16.832Z,15.73
2023-01-20T11:11:44.143Z,15.60
2023-01-20T11:14:11.358Z,16.93
2023-01-20T11:16:40.449Z,18.17
2023-01-20T11:19:07.832Z,17.27
2023-01-20T11:21:36.470Z,17.97
2023-01-20T11:24:25.662Z,19.73
2023-01-20T11:27:01.839Z,16.50
2023-01-20T11:29:34.599Z,16.60
2023-01-20T11:32:02.522Z,17.70
2023-01-20T11:34:31.764Z,17.30
2023-01-20T11:37:18.761Z,17.37
2023-01-20T11:39:59.583Z,17.50
2023-01-20T11:42:28.537Z,15.30
2023-01-20T11:45:08.525Z,17.00
2023-01-20T11:47:44.941Z,17.30
2023-01-20T11:50:27.831Z,16.73
2023-01-20T11:53:13.152Z,16.77
2023-01-20T11:55:48.172Z,16.20
2023-01-20T11:58:19.086Z,17.80
2023-01-20T12:00:46.634Z,17.33
2023-01-20T12:03:58.805Z,16.33
2023-01-20T12:06:28.487Z,18.10
2023-01-20T12:09:00.884Z,18.57
2023-01-20T12:11:33.707Z,19.03
2023-01-20T12:14:22.649Z,18.10
2023-01-20T12:16:57.461Z,17.33
2023-01-20T12:19:32.091Z,20.00
2023-01-20T12:22:05.924Z,16.60
2023-01-20T12:24:54.748Z,15.03
2023-01-20T12:27:26.727Z,17.17
2023-01-20T12:29:56.856Z,17.87
2023-01-20T12:32:24.162Z,17.43
2023-01-20T12:34:51.443Z,17.60
2023-01-20T12:37:24.955Z,20.87
2023-01-20T12:40:08.379Z,21.13
2023-01-20T12:43:11.126Z,19.00
2023-01-20T12:45:52.861Z,20.57
2023-01-20T12:48:34.727Z,19.40
2023-01-20T12:51:19.365Z,18.33
2023-01-20T12:54:15.656Z,19.53
2023-01-20T12:56:52.624Z,14.47
2023-01-20T12:59:34.864Z,17.33
2023-01-20T13:02:26.740Z,18.37
2023-01-20T13:05:11.448Z,18.50
2023-01-20T13:07:52.315Z,18.27
2023-01-20T13:10:51.192Z,19.57
2023-01-20T13:13:30.011Z,18.93
2023-01-20T13:16:03.309Z,18.00
2023-01-20T13:18:39.696Z,17.23
2023-01-20T13:21:10.092Z,20.37
2023-01-20T13:23:37.908Z,18.47
2023-01-20T13:26:06.026Z,19.43
2023-01-20T13:28:33.868Z,27.70
2023-01-20T13:31:22.302Z,40.13
2023-01-20T13:33:50.371Z,24.37
2023-01-20T13:36:19.500Z,24.00
2023-01-20T13:38:48.371Z,24.57
2023-01-20T13:41:48.445Z,24.80
2023-01-20T13:44:34.551Z,18.93
2023-01-20T13:47:02.731Z,25.73
2023-01-20T13:49:47.655Z,18.67
2023-01-20T13:52:15.532Z,20.80
2023-01-20T13:54:45.435Z,20.30
2023-01-20T13:57:36.032Z,18.17
2023-01-20T14:00:15.800Z,20.77
2023-01-20T14:02:43.166Z,15.90
2023-01-20T14:05:27.830Z,19.53
2023-01-20T14:07:55.724Z,20.07
2023-01-20T14:10:23.463Z,23.33
2023-01-20T14:12:50.689Z,24.87
2023-01-20T14:15:31.332Z,23.20
2023-01-20T14:18:00.113Z,20.90
2023-01-20T14:20:31.100Z,20.00
2023-01-20T14:23:24.120Z,20.00
2023-01-20T14:25:57.995Z,21.43
2023-01-20T14:28:25.350Z,16.40
2023-01-20T14:31:12.600Z,20.60
2023-01-20T14:33:48.605Z,24.37
2023-01-20T14:36:21.111Z,21.63
2023-01-20T14:38:58.035Z,22.80
2023-01-20T14:41:29.073Z,19.97
2023-01-20T14:43:57.088Z,22.10
2023-01-20T14:46:25.843Z,22.33
2023-01-20T14:48:55.366Z,21.63
2023-01-20T14:51:23.706Z,22.50
2023-01-20T14:54:34.858Z,23.50
2023-01-20T14:57:19.195Z,22.93
2023-01-20T14:59:46.913Z,20.40
2023-01-20T15:02:33.257Z,23.53
2023-01-20T15:05:03.752Z,24.13
2023-01-20T15:07:46.620Z,24.70
2023-01-20T15:10:22.846Z,26.47
2023-01-20T15:13:15.636Z,23.47
2023-01-20T15:15:48.687Z,21.17
2023-01-20T15:18:39.452Z,21.17
2023-01-20T15:21:32.793Z,22.37
2023-01-20T15:24:17.313Z,21.40
2023-01-20T15:27:02.474Z,21.00
2023-01-20T15:29:36.268Z,21.47
2023-01-20T15:32:14.684Z,23.70
2023-01-20T15:34:44.456Z,23.57
2023-01-20T15:37:19.721Z,20.20
2023-01-20T15:39:52.579Z,21.13
2023-01-20T15:42:23.966Z,23.00
2023-01-20T15:44:53.421Z,25.33
2023-01-20T15:47:29.070Z,22.93
2023-01-20T15:50:00.659Z,21.70
2023-01-20T15:52:32.348Z,23.87
2023-01-20T15:55:03.164Z,24.10
2023-01-20T15:57:32.580Z,23.43
2023-01-20T16:00:03.264Z,25.43
2023-01-20T16:02:35.364Z,23.50
2023-01-20T16:05:05.861Z,22.17
2023-01-20T16:07:38.473Z,21.80
2023-01-20T16:10:21.011Z,25.03
2023-01-20T16:15:56.014Z,29.70
2023-01-20T16:18:25.429Z,25.93
2023-01-20T16:20:54.114Z,24.77
2023-01-20T16:23:22.654Z,26.73
2023-01-20T16:25:51.745Z,27.27
2023-01-20T16:28:23.360Z,24.93
2023-01-20T16:30:53.652Z,24.80
2023-01-20T16:33:23.560Z,25.90
2023-01-20T16:35:53.021Z,27.13
2023-01-20T16:38:23.025Z,28.13
2023-01-20T16:40:53.927Z,29.23
2023-01-20T16:43:22.935Z,30.80
2023-01-20T16:45:54.098Z,24.40
2023-01-20T16:48:23.037Z,24.40
2023-01-20T16:50:54.257Z,28.40
2023-01-20T16:53:25.382Z,83.07
2023-01-20T16:55:57.250Z,30.30
2023-01-20T16:58:25.371Z,43.10
2023-01-20T17:00:55.775Z,27.03
2023-01-20T17:03:27.092Z,21.87
2023-01-20T17:05:56.949Z,24.20
2023-01-20T17:08:25.123Z,24.40
2023-01-20T17:10:57.929Z,17.77
2023-01-20T17:13:25.725Z,22.47
2023-01-20T17:16:02.132Z,19.80
2023-01-20T17:18:32.693Z,16.90
2023-01-20T17:21:05.598Z,35.80
2023-01-20T17:23:33.459Z,12.43
2023-01-20T17:26:04.042Z,16.40
2023-01-20T17:28:37.343Z,17.67
2023-01-20T17:31:08.185Z,20.27
2023-01-20T17:33:36.536Z,17.73
2023-01-20T17:36:08.203Z,11.13
2023-01-20T17:38:37.342Z,18.23
2023-01-20T17:41:15.552Z,26.40
2023-01-20T17:43:46.150Z,23.40
2023-01-20T17:46:16.176Z,18.40
2023-01-20T17:48:44.742Z,21.23
2023-01-20T17:51:14.237Z,20.50
2023-01-20T17:53:45.445Z,21.60
2023-01-20T17:56:17.031Z,22.00
2023-01-20T17:59:08.905Z,21.57
2023-01-20T18:01:48.749Z,23.30
2023-01-20T18:04:34.325Z,28.23
2023-01-20T18:07:06.472Z,21.47
2023-01-20T18:09:34.597Z,21.00
2023-01-20T18:12:05.470Z,20.50
2023-01-20T18:14:36.244Z,19.80
2023-01-20T18:17:18.649Z,20.10
2023-01-20T18:22:51.805Z,21.13
2023-01-20T18:25:25.622Z,21.73
2023-01-20T18:28:06.851Z,26.30
2023-01-20T18:30:35.314Z,21.50
2023-01-20T18:33:04.197Z,21.90
2023-01-20T18:35:44.731Z,20.77
2023-01-20T18:38:16.242Z,18.70
2023-01-20T18:40:48.376Z,23.57
2023-01-20T18:43:26.038Z,25.20
2023-01-20T18:46:01.362Z,22.17
2023-01-20T18:52:00.162Z,21.67
2023-01-20T18:54:37.691Z,21.40
2023-01-20T18:57:12.212Z,23.57
2023-01-20T18:59:51.947Z,24.13
2023-01-20T19:02:53.173Z,27.50
2023-01-20T19:05:40.370Z,24.90
2023-01-20T19:08:08.172Z,26.57
2023-01-20T19:10:37.285Z,23.20
2023-01-20T19:13:05.151Z,21.93
2023-01-20T19:15:37.990Z,28.63
2023-01-20T19:18:05.827Z,22.60
2023-01-20T19:20:36.224Z,13.40
2023-01-20T19:23:07.306Z,14.70
2023-01-20T19:25:36.586Z,9.47
2023-01-20T19:28:07.938Z,17.93
2023-01-20T19:30:44.921Z,13.37
2023-01-20T19:33:29.678Z,10.83
2023-01-20T19:38:55.176Z,6.30
2023-01-20T19:41:25.675Z,12.00
2023-01-20T19:44:11.561Z,9.97
2023-01-20T19:46:41.539Z,8.90
2023-01-20T19:49:17.759Z,13.73
2023-01-20T19:51:46.031Z,15.17
2023-01-20T19:54:17.958Z,7.80
2023-01-20T19:56:46.480Z,7.50
2023-01-20T19:59:14.574Z,9.93
2023-01-20T20:01:44.722Z,11.30
2023-01-20T20:04:14.177Z,10.87
2023-01-20T20:06:45.646Z,10.70
2023-01-20T20:12:05.967Z,12.97
2023-01-20T20:14:34.255Z,15.93
2023-01-20T20:17:03.994Z,18.50
2023-01-20T20:19:32.177Z,11.70
2023-01-20T20:22:02.769Z,17.30
2023-01-20T20:24:34.611Z,13.90
2023-01-20T20:27:02.907Z,9.30
2023-01-20T20:29:31.366Z,12.67
2023-01-20T20:32:02.866Z,16.40
2023-01-20T20:34:33.130Z,12.20
2023-01-20T20:37:01.165Z,15.20
2023-01-20T20:39:32.330Z,12.90
2023-01-20T20:42:00.521Z,16.93
2023-01-20T20:44:30.834Z,15.73
2023-01-20T20:46:58.866Z,16.97
2023-01-20T20:49:26.844Z,9.27
2023-01-20T20:51:57.928Z,16.53
2023-01-20T20:54:30.220Z,9.50
2023-01-20T20:56:58.022Z,15.97
2023-01-20T20:59:25.997Z,13.37
2023-01-20T21:01:53.936Z,16.03
2023-01-20T21:04:23.070Z,24.97
2023-01-20T21:06:50.973Z,15.27
2023-01-20T21:09:20.133Z,17.07
2023-01-20T21:11:48.167Z,15.03
2023-01-20T21:14:18.181Z,16.80
2023-01-20T21:16:49.797Z,18.33
2023-01-20T21:19:17.470Z,17.77
2023-01-20T21:21:46.813Z,16.43
2023-01-20T21:24:14.565Z,17.73
2023-01-20T21:26:43.528Z,14.43
2023-01-20T21:29:11.720Z,10.27
2023-01-20T21:31:46.755Z,10.50
2023-01-20T21:34:14.849Z,17.60
2023-01-20T21:36:42.478Z,18.30
2023-01-20T21:39:19.996Z,14.80
2023-01-20T21:41:53.349Z,8.50
2023-01-20T21:44:33.634Z,12.50
2023-01-20T21:47:11.637Z,18.70
2023-01-20T21:50:03.209Z,13.87
2023-01-20T21:52:44.292Z,12.13
2023-01-20T21:55:24.008Z,8.10
2023-01-20T21:57:52.247Z,16.20
2023-01-20T22:00:20.639Z,19.17
2023-01-20T22:02:49.190Z,14.40
2023-01-20T22:05:17.520Z,15.70
2023-01-20T22:07:47.165Z,9.13
2023-01-20T22:10:20.506Z,13.47
2023-01-20T22:12:48.230Z,10.73
2023-01-20T22:15:17.163Z,10.37
2023-01-20T22:17:45.497Z,18.20
2023-01-20T22:20:14.115Z,17.87
2023-01-20T22:22:42.067Z,14.13
2023-01-20T22:25:10.231Z,15.80
2023-01-20T22:27:43.975Z,17.70
2023-01-20T22:30:18.912Z,9.03
2023-01-20T22:32:47.986Z,17.00
2023-01-20T22:35:21.065Z,14.37
2023-01-20T22:37:59.974Z,14.07
2023-01-20T22:40:28.000Z,9.60
2023-01-20T22:43:08.141Z,8.10
2023-01-20T22:45:40.809Z,9.73
2023-01-20T22:48:12.448Z,16.43
2023-01-20T22:50:46.933Z,13.97
2023-01-20T22:53:21.263Z,11.97
2023-01-20T22:56:00.512Z,8.00
2023-01-20T22:58:30.450Z,10.80
2023-01-20T23:00:58.612Z,17.33
2023-01-20T23:03:30.807Z,11.33
2023-01-20T23:05:59.816Z,11.60
2023-01-20T23:08:29.564Z,11.43
2023-01-20T23:11:02.553Z,11.90
2023-01-20T23:13:51.799Z,6.37
2023-01-20T23:16:22.559Z,10.03
2023-01-20T23:19:07.944Z,13.43
2023-01-20T23:21:46.712Z,13.60
2023-01-20T23:24:15.363Z,6.97
2023-01-20T23:26:43.072Z,10.10
2023-01-20T23:29:11.027Z,9.13
2023-01-20T23:31:41.379Z,4.93
2023-01-20T23:34:19.524Z,14.60
2023-01-20T23:36:53.067Z,9.50
2023-01-20T23:39:23.407Z,9.00
2023-01-20T23:41:51.231Z,13.90
2023-01-20T23:44:18.764Z,7.87
2023-01-20T23:46:52.132Z,13.40
2023-01-20T23:49:22.600Z,9.27
2023-01-20T23:51:54.948Z,7.73
2023-01-20T23:54:25.327Z,10.53
2023-01-20T23:56:54.075Z,10.10
2023-01-20T23:59:21.965Z,11.33
